Terminal Aerodrome Forecast
Issued by NWS

Home | Current Version | Previous Version | Text Only | Print | Product List | Glossary On
Versions: 1 2 3 4 5 6 7 8 9 10 11 12
235
FTUS44 KJAN 242334
TAFHKS
TAF
KHKS 242334Z 2500/2524 16004KT P6SM FEW050 SCT250
     FM251100 16004KT 6SM BR BKN020 BKN200
     FM251500 17010KT P6SM SCT025 BKN040=

USA.gov is the U.S. government's official web portal to all federal, state and local government web resources and services.